createdAt,value
2024-02-17T00:01:16.783Z,101153.11
2024-02-17T00:03:44.510Z,101148.81
2024-02-17T00:06:12.334Z,101148.64
2024-02-17T00:08:40.048Z,101150.92
2024-02-17T00:11:07.659Z,101148.79
2024-02-17T00:13:35.270Z,101154.11
2024-02-17T00:16:03.860Z,101159.71
2024-02-17T00:18:31.542Z,101161.49
2024-02-17T00:21:04.841Z,101152.52
2024-02-17T00:23:33.030Z,101153.16
2024-02-17T00:26:00.718Z,101156.23
2024-02-17T00:28:29.786Z,101151.88
2024-02-17T00:30:57.697Z,101144.68
2024-02-17T00:41:10.595Z,101145.13
2024-02-17T00:43:38.172Z,101142.92
2024-02-17T00:46:05.824Z,101147.02
2024-02-17T00:48:33.869Z,101148.43
2024-02-17T00:51:08.862Z,101150.70
2024-02-17T01:01:22.876Z,101147.69
2024-02-17T01:03:55.192Z,101148.10
2024-02-17T01:06:23.762Z,101148.30
2024-02-17T01:08:51.353Z,101142.29
2024-02-17T01:11:20.326Z,101141.86
2024-02-17T01:13:48.125Z,101141.46
2024-02-17T01:16:15.781Z,101141.63
2024-02-17T01:18:44.079Z,101136.60
2024-02-17T01:21:12.495Z,101138.11
2024-02-17T01:23:40.096Z,101134.21
2024-02-17T01:26:08.498Z,101127.67
2024-02-17T01:28:36.268Z,101127.21
2024-02-17T01:31:03.729Z,101124.91
2024-02-17T01:33:31.228Z,101121.61
2024-02-17T01:35:58.958Z,101120.18
2024-02-17T01:38:26.560Z,101121.52
2024-02-17T01:48:32.277Z,101120.75
2024-02-17T01:58:38.252Z,101122.77
2024-02-17T02:01:06.610Z,101118.56
2024-02-17T02:03:35.198Z,101119.30
2024-02-17T02:06:04.038Z,101116.52
2024-02-17T02:16:11.967Z,101109.22
2024-02-17T02:18:39.770Z,101102.86
2024-02-17T02:21:07.496Z,101104.15
2024-02-17T02:23:36.560Z,101107.33
2024-02-17T02:26:04.439Z,101101.34
2024-02-17T02:28:31.993Z,101101.15
2024-02-17T02:31:00.732Z,101099.83
2024-02-17T02:40:12.078Z,101094.41
2024-02-17T02:50:18.940Z,101076.52
2024-02-17T02:52:46.524Z,101074.13
2024-02-17T02:55:14.059Z,101073.31
2024-02-17T02:57:41.743Z,101073.18
2024-02-17T03:00:10.203Z,101068.98
2024-02-17T03:02:37.884Z,101069.85
2024-02-17T03:05:05.435Z,101061.92
2024-02-17T03:07:33.028Z,101065.04
2024-02-17T03:10:00.703Z,101058.05
2024-02-17T03:12:28.182Z,101057.73
2024-02-17T03:14:55.782Z,101063.65
2024-02-17T03:17:23.443Z,101060.73
2024-02-17T03:19:53.139Z,101063.10
2024-02-17T03:22:20.919Z,101065.20
2024-02-17T03:24:48.560Z,101063.79
2024-02-17T03:27:16.398Z,101062.02
2024-02-17T03:29:44.046Z,101066.00
2024-02-17T03:32:11.686Z,101068.66
2024-02-17T03:34:40.920Z,101066.73
2024-02-17T03:37:08.772Z,101072.09
2024-02-17T03:39:36.481Z,101072.59
2024-02-17T03:49:50.238Z,101067.81
2024-02-17T03:52:18.685Z,101065.98
2024-02-17T03:54:46.400Z,101061.69
2024-02-17T03:57:15.215Z,101061.46
2024-02-17T03:59:42.737Z,101062.77
2024-02-17T04:02:10.298Z,101061.69
2024-02-17T04:04:37.905Z,101058.71
2024-02-17T04:07:05.683Z,101061.24
2024-02-17T04:09:33.404Z,101059.52
2024-02-17T04:12:01.124Z,101059.14
2024-02-17T04:14:28.918Z,101062.92
2024-02-17T04:24:16.395Z,101052.41
2024-02-17T04:26:43.978Z,101050.27
2024-02-17T04:29:17.001Z,101049.02
2024-02-17T04:31:44.792Z,101044.33
2024-02-17T04:34:12.640Z,101049.15
2024-02-17T04:36:43.859Z,101046.47
2024-02-17T04:39:13.733Z,101048.10
2024-02-17T04:41:41.382Z,101044.30
2024-02-17T04:51:39.743Z,101047.20
2024-02-17T04:54:08.154Z,101045.75
2024-02-17T04:56:35.593Z,101047.81
2024-02-17T04:59:03.122Z,101046.90
2024-02-17T05:01:31.279Z,101049.38
2024-02-17T05:03:59.026Z,101044.99
2024-02-17T05:06:26.786Z,101045.02
2024-02-17T05:08:54.424Z,101047.61
2024-02-17T05:11:22.350Z,101049.14
2024-02-17T05:13:49.943Z,101051.39
2024-02-17T05:16:17.535Z,101052.42
2024-02-17T05:18:45.941Z,101055.59
2024-02-17T05:21:18.313Z,101057.02
2024-02-17T05:23:46.129Z,101058.98
2024-02-17T05:26:13.501Z,101056.58
2024-02-17T05:28:41.060Z,101052.58
2024-02-17T05:31:25.159Z,101055.93
2024-02-17T05:33:53.057Z,101055.00
2024-02-17T05:36:20.814Z,101057.20
2024-02-17T05:38:48.358Z,101058.14
2024-02-17T05:41:15.952Z,101058.63
2024-02-17T05:43:43.417Z,101061.98
2024-02-17T05:46:11.651Z,101056.70
2024-02-17T05:48:39.379Z,101058.17
2024-02-17T05:51:07.015Z,101054.52
2024-02-17T05:53:34.556Z,101057.33
2024-02-17T05:56:02.010Z,101060.30
2024-02-17T05:58:29.641Z,101063.30
2024-02-17T06:01:01.991Z,101059.56
2024-02-17T06:03:30.308Z,101060.10
2024-02-17T06:05:58.019Z,101056.71
2024-02-17T06:16:08.404Z,101057.15
2024-02-17T06:18:55.032Z,101058.13
2024-02-17T06:21:23.647Z,101060.91
2024-02-17T06:23:53.107Z,101061.02
2024-02-17T06:27:05.712Z,101068.67
2024-02-17T06:29:33.385Z,101070.69
2024-02-17T06:32:01.389Z,101071.62
2024-02-17T06:34:29.159Z,101067.65
2024-02-17T06:43:57.970Z,101064.02
2024-02-17T06:46:26.574Z,101060.77
2024-02-17T06:48:55.121Z,101059.02
2024-02-17T06:51:24.145Z,101064.52
2024-02-17T06:53:51.869Z,101067.30
2024-02-17T06:56:19.356Z,101065.06
2024-02-17T06:58:46.915Z,101064.61
2024-02-17T07:01:14.896Z,101062.91
2024-02-17T07:03:42.493Z,101061.70
2024-02-17T07:06:10.642Z,101060.27
2024-02-17T07:16:19.810Z,101061.57
2024-02-17T07:18:47.863Z,101064.39
2024-02-17T07:21:15.588Z,101066.39
2024-02-17T07:23:43.219Z,101066.77
2024-02-17T07:26:10.777Z,101069.77
2024-02-17T07:28:39.681Z,101072.73
2024-02-17T07:31:07.682Z,101068.61
2024-02-17T07:33:35.392Z,101072.45
2024-02-17T07:36:03.241Z,101067.13
2024-02-17T07:38:31.546Z,101066.46
2024-02-17T07:48:38.394Z,101055.14
2024-02-17T07:51:06.267Z,101054.62
2024-02-17T08:01:36.938Z,101049.66
2024-02-17T08:04:04.038Z,101047.39
2024-02-17T08:06:31.062Z,101046.52
2024-02-17T08:08:57.984Z,101049.33
2024-02-17T08:11:24.823Z,101051.16
2024-02-17T08:13:51.677Z,101046.95
2024-02-17T08:16:18.445Z,101047.46
2024-02-17T08:18:46.559Z,101041.95
2024-02-17T08:21:13.779Z,101033.48
2024-02-17T08:23:44.307Z,101036.48
2024-02-17T08:26:17.049Z,101035.60
2024-02-17T08:28:44.188Z,101034.00
2024-02-17T08:31:10.959Z,101027.66
2024-02-17T08:33:37.851Z,101029.80
2024-02-17T08:36:04.958Z,101023.32
2024-02-17T08:38:31.730Z,101026.40
2024-02-17T08:40:58.465Z,101023.64
2024-02-17T08:43:25.370Z,101018.34
2024-02-17T08:45:52.893Z,101016.77
2024-02-17T08:48:20.044Z,101017.11
2024-02-17T08:50:47.004Z,101017.63
2024-02-17T08:53:13.701Z,101017.65
2024-02-17T08:55:40.450Z,101013.98
2024-02-17T08:58:07.170Z,101015.80
2024-02-17T09:00:36.975Z,101021.31
2024-02-17T09:03:03.922Z,101022.95
2024-02-17T09:05:30.866Z,101024.94
2024-02-17T09:07:57.576Z,101024.32
2024-02-17T09:10:24.555Z,101021.59
2024-02-17T09:12:51.998Z,101018.13
2024-02-17T09:15:19.605Z,101016.77
2024-02-17T09:17:47.921Z,101014.18
2024-02-17T09:20:16.280Z,101013.70
2024-02-17T09:22:43.198Z,101012.10
2024-02-17T09:25:10.120Z,101011.75
2024-02-17T09:27:37.019Z,101012.32
2024-02-17T09:30:05.079Z,101011.45
2024-02-17T09:32:32.281Z,101011.66
2024-02-17T09:34:59.212Z,101005.67
2024-02-17T09:37:26.253Z,101005.16
2024-02-17T09:39:53.344Z,100998.13
2024-02-17T09:42:20.197Z,100990.89
2024-02-17T09:44:51.170Z,100991.77
2024-02-17T09:47:17.851Z,100985.61
2024-02-17T09:49:44.749Z,100987.36
2024-02-17T09:52:11.617Z,100984.73
2024-02-17T09:54:38.696Z,100977.86
2024-02-17T09:57:06.272Z,100983.35
2024-02-17T09:59:33.032Z,100972.39
2024-02-17T10:02:00.572Z,100972.55
2024-02-17T10:04:27.539Z,100970.06
2024-02-17T10:07:01.368Z,100962.64
2024-02-17T10:09:30.666Z,100964.61
2024-02-17T10:11:59.200Z,100959.86
2024-02-17T10:14:28.030Z,100958.61
2024-02-17T10:17:00.683Z,100948.17
2024-02-17T10:19:29.686Z,100940.38
2024-02-17T10:21:56.800Z,100941.25
2024-02-17T10:24:23.763Z,100933.84
2024-02-17T10:26:52.289Z,100937.77
2024-02-17T10:29:19.114Z,100942.02
2024-02-17T10:31:49.133Z,100935.67
2024-02-17T10:34:16.684Z,100934.25
2024-02-17T10:36:43.918Z,100929.46
2024-02-17T10:39:13.645Z,100924.52
2024-02-17T10:41:40.499Z,100921.85
2024-02-17T10:44:07.550Z,100917.61
2024-02-17T10:46:37.480Z,100906.80
2024-02-17T10:49:40.381Z,100911.57
2024-02-17T10:52:09.451Z,100907.33
2024-02-17T10:54:57.174Z,100899.73
2024-02-17T10:57:24.959Z,100902.75
2024-02-17T10:59:54.883Z,100898.69
2024-02-17T11:02:26.833Z,100896.94
2024-02-17T11:04:53.520Z,100899.09
2024-02-17T11:07:20.479Z,100898.55
2024-02-17T11:09:47.292Z,100893.81
2024-02-17T11:12:29.794Z,100889.38
2024-02-17T11:15:14.906Z,100893.81
2024-02-17T11:17:58.785Z,100891.66
2024-02-17T11:20:26.596Z,100895.04
2024-02-17T11:22:57.498Z,100890.63
2024-02-17T11:25:39.706Z,100889.05
2024-02-17T11:28:20.299Z,100887.63
2024-02-17T11:30:51.554Z,100879.48
2024-02-17T11:33:34.050Z,100875.04
2024-02-17T11:36:04.939Z,100872.02
2024-02-17T11:38:32.116Z,100869.68
2024-02-17T11:41:02.139Z,100867.89
2024-02-17T11:43:30.755Z,100868.79
2024-02-17T11:45:58.214Z,100864.20
2024-02-17T11:48:29.363Z,100863.15
2024-02-17T11:51:13.161Z,100862.09
2024-02-17T11:53:41.166Z,100864.73
2024-02-17T11:56:11.255Z,100863.30
2024-02-17T11:58:38.440Z,100850.73
2024-02-17T12:01:05.277Z,100848.43
2024-02-17T12:03:32.691Z,100850.36
2024-02-17T12:06:03.271Z,100848.04
2024-02-17T12:08:31.418Z,100836.70
2024-02-17T12:10:58.451Z,100833.87
2024-02-17T12:13:25.350Z,100835.65
2024-02-17T12:15:52.166Z,100835.66
2024-02-17T12:18:19.333Z,100832.33
2024-02-17T12:20:49.291Z,100833.39
2024-02-17T12:23:18.120Z,100833.89
2024-02-17T12:25:44.925Z,100832.09
2024-02-17T12:28:11.573Z,100831.91
2024-02-17T12:30:49.168Z,100822.54
2024-02-17T12:33:21.614Z,100820.71
2024-02-17T12:35:49.233Z,100818.56
2024-02-17T12:38:21.452Z,100823.52
2024-02-17T12:40:48.844Z,100824.73
2024-02-17T12:43:34.685Z,100823.31
2024-02-17T12:46:18.466Z,100822.64
2024-02-17T12:48:52.797Z,100827.58
2024-02-17T12:51:21.007Z,100828.09
2024-02-17T12:53:48.346Z,100831.10
2024-02-17T12:56:16.120Z,100823.84
2024-02-17T12:58:43.786Z,100824.20
2024-02-17T13:01:11.338Z,100825.60
2024-02-17T13:03:38.462Z,100826.65
2024-02-17T13:06:07.392Z,100823.80
2024-02-17T13:08:35.046Z,100811.95
2024-02-17T13:11:04.288Z,100809.80
2024-02-17T13:13:31.582Z,100804.50
2024-02-17T13:15:58.576Z,100810.86
2024-02-17T13:18:25.762Z,100810.30
2024-02-17T13:20:52.757Z,100809.20
2024-02-17T13:23:19.743Z,100815.73
2024-02-17T13:25:46.640Z,100818.34
2024-02-17T13:28:13.807Z,100811.11
2024-02-17T13:30:40.962Z,100809.84
2024-02-17T13:33:07.713Z,100805.23
2024-02-17T13:35:34.662Z,100806.30
2024-02-17T13:38:13.649Z,100805.92
2024-02-17T13:40:48.652Z,100803.83
2024-02-17T13:43:15.364Z,100804.02
2024-02-17T13:45:47.706Z,100797.15
2024-02-17T13:48:14.582Z,100799.27
2024-02-17T13:50:41.528Z,100798.56
2024-02-17T13:53:08.348Z,100799.45
2024-02-17T13:55:35.964Z,100797.68
2024-02-17T13:58:03.369Z,100796.97
2024-02-17T14:00:30.455Z,100793.61
2024-02-17T14:02:57.411Z,100788.82
2024-02-17T14:05:25.317Z,100787.56
2024-02-17T14:07:52.301Z,100781.55
2024-02-17T14:10:19.454Z,100784.22
2024-02-17T14:12:46.260Z,100783.19
2024-02-17T14:15:12.857Z,100785.67
2024-02-17T14:17:39.782Z,100777.55
2024-02-17T14:20:09.938Z,100775.60
2024-02-17T14:22:37.135Z,100770.48
2024-02-17T14:25:04.481Z,100772.20
2024-02-17T14:27:33.712Z,100767.22
2024-02-17T14:30:00.561Z,100769.70
2024-02-17T14:32:27.335Z,100772.92
2024-02-17T14:34:54.527Z,100765.17
2024-02-17T14:37:21.604Z,100758.29
2024-02-17T14:39:48.445Z,100758.64
2024-02-17T14:42:16.140Z,100759.00
2024-02-17T14:44:43.954Z,100756.49
2024-02-17T14:47:10.820Z,100764.27
2024-02-17T14:49:37.988Z,100764.95
2024-02-17T14:52:05.379Z,100766.17
2024-02-17T14:54:32.116Z,100772.19
2024-02-17T14:56:58.957Z,100760.70
2024-02-17T14:59:25.649Z,100758.61
2024-02-17T15:01:52.697Z,100752.26
2024-02-17T15:04:19.751Z,100749.42
2024-02-17T15:06:46.862Z,100749.77
2024-02-17T15:09:13.875Z,100744.27
2024-02-17T15:11:40.980Z,100742.00
2024-02-17T15:14:07.981Z,100738.11
2024-02-17T15:24:50.861Z,100733.59
2024-02-17T15:27:18.422Z,100734.66
2024-02-17T15:29:46.032Z,100737.48
2024-02-17T15:32:12.816Z,100731.14
2024-02-17T15:34:39.813Z,100732.53
2024-02-17T15:37:09.961Z,100736.91
2024-02-17T15:39:37.287Z,100732.88
2024-02-17T15:42:04.887Z,100737.67
2024-02-17T15:44:37.551Z,100732.38
2024-02-17T15:47:05.618Z,100731.66
2024-02-17T15:49:32.432Z,100730.04
2024-02-17T15:52:01.346Z,100725.94
2024-02-17T15:54:28.757Z,100732.64
2024-02-17T15:56:55.624Z,100734.93
2024-02-17T15:59:22.950Z,100737.92
2024-02-17T16:01:49.746Z,100739.35
2024-02-17T16:04:16.847Z,100733.18
2024-02-17T16:06:44.310Z,100728.77
2024-02-17T16:09:11.336Z,100730.38
2024-02-17T16:11:38.278Z,100739.73
2024-02-17T16:14:05.109Z,100741.86
2024-02-17T16:16:31.859Z,100741.14
2024-02-17T16:18:59.251Z,100733.36
2024-02-17T16:21:27.405Z,100732.83
2024-02-17T16:23:56.474Z,100734.79
2024-02-17T16:26:25.274Z,100723.33
2024-02-17T16:28:52.114Z,100728.30
2024-02-17T16:31:18.979Z,100724.41
2024-02-17T16:33:47.827Z,100725.12
2024-02-17T16:36:14.823Z,100730.23
2024-02-17T16:38:41.566Z,100733.58
2024-02-17T16:41:09.520Z,100732.33
2024-02-17T16:43:36.587Z,100725.98
2024-02-17T16:46:04.282Z,100725.10
2024-02-17T16:48:31.762Z,100723.34
2024-02-17T16:50:58.960Z,100726.73
2024-02-17T16:53:25.774Z,100723.38
2024-02-17T16:55:52.447Z,100722.48
2024-02-17T16:58:19.389Z,100718.78
2024-02-17T17:00:46.203Z,100709.59
2024-02-17T17:03:13.072Z,100698.63
2024-02-17T17:05:40.279Z,100707.64
2024-02-17T17:08:07.539Z,100706.94
2024-02-17T17:10:34.514Z,100703.77
2024-02-17T17:13:01.200Z,100702.55
2024-02-17T17:15:29.110Z,100699.73
2024-02-17T17:17:55.904Z,100692.84
2024-02-17T17:20:23.902Z,100692.66
2024-02-17T17:22:51.207Z,100698.48
2024-02-17T17:25:18.177Z,100695.49
2024-02-17T17:27:45.168Z,100696.90
2024-02-17T17:30:13.778Z,100699.20
2024-02-17T17:32:41.521Z,100696.04
2024-02-17T17:35:09.735Z,100695.89
2024-02-17T17:37:36.746Z,100691.64
2024-02-17T17:40:05.766Z,100690.58
2024-02-17T17:42:33.295Z,100693.06
2024-02-17T17:45:00.396Z,100685.96
2024-02-17T17:47:33.370Z,100687.39
2024-02-17T17:50:00.171Z,100689.31
2024-02-17T17:52:27.422Z,100686.50
2024-02-17T17:54:54.401Z,100684.74
2024-02-17T17:57:22.501Z,100681.58
2024-02-17T17:59:50.191Z,100681.94
2024-02-17T18:02:17.074Z,100683.88
2024-02-17T18:04:44.180Z,100699.42
2024-02-17T18:07:11.293Z,100693.23
2024-02-17T18:09:38.069Z,100692.36
2024-02-17T18:12:05.618Z,100693.77
2024-02-17T18:14:34.982Z,100691.46
2024-02-17T18:17:02.047Z,100694.83
2024-02-17T18:19:29.057Z,100693.99
2024-02-17T18:21:56.596Z,100692.40
2024-02-17T18:24:23.689Z,100690.84
2024-02-17T18:26:50.578Z,100685.17
2024-02-17T18:29:17.380Z,100682.34
2024-02-17T18:31:44.422Z,100679.33
2024-02-17T18:34:11.401Z,100681.79
2024-02-17T18:36:38.466Z,100684.61
2024-02-17T18:39:05.382Z,100685.12
2024-02-17T18:41:32.486Z,100690.44
2024-02-17T18:45:23.071Z,100696.02
2024-02-17T18:47:51.217Z,100697.27
2024-02-17T18:50:19.052Z,100698.77
2024-02-17T18:52:46.746Z,100694.17
2024-02-17T18:55:14.324Z,100689.05
2024-02-17T18:57:42.094Z,100689.75
2024-02-17T19:00:10.338Z,100686.74
2024-02-17T19:02:38.231Z,100682.17
2024-02-17T19:05:06.955Z,100678.81
2024-02-17T19:07:34.565Z,100680.41
2024-02-17T19:10:02.520Z,100679.18
2024-02-17T19:12:30.262Z,100674.39
2024-02-17T19:14:57.887Z,100670.85
2024-02-17T19:17:25.515Z,100668.91
2024-02-17T19:19:53.189Z,100671.38
2024-02-17T19:22:21.022Z,100677.20
2024-02-17T19:24:48.799Z,100676.33
2024-02-17T19:27:17.396Z,100674.75
2024-02-17T19:29:45.183Z,100672.11
2024-02-17T19:32:12.836Z,100671.23
2024-02-17T19:34:40.986Z,100669.81
2024-02-17T19:37:08.841Z,100669.46
2024-02-17T19:39:36.858Z,100666.63
2024-02-17T19:42:05.075Z,100671.23
2024-02-17T19:44:32.794Z,100674.42
2024-02-17T19:47:03.377Z,100672.11
2024-02-17T19:49:32.713Z,100667.69
2024-02-17T19:52:00.639Z,100669.82
2024-02-17T19:54:28.390Z,100666.12
2024-02-17T19:56:55.921Z,100655.50
2024-02-17T19:59:23.586Z,100656.39
2024-02-17T20:01:52.633Z,100654.61
2024-02-17T20:04:20.574Z,100652.48
2024-02-17T20:06:48.379Z,100652.67
2024-02-17T20:09:16.276Z,100651.60
2024-02-17T20:11:44.056Z,100646.09
2024-02-17T20:14:11.824Z,100649.60
2024-02-17T20:16:39.488Z,100647.45
2024-02-17T20:19:07.407Z,100650.82
2024-02-17T20:21:38.409Z,100650.09
2024-02-17T20:24:06.756Z,100647.95
2024-02-17T20:26:34.474Z,100647.06
2024-02-17T20:29:02.438Z,100642.98
2024-02-17T20:31:29.995Z,100641.39
2024-02-17T20:34:00.446Z,100640.33
2024-02-17T20:36:28.535Z,100640.86
2024-02-17T20:38:56.458Z,100643.71
2024-02-17T20:41:24.200Z,100645.31
2024-02-17T20:43:51.969Z,100649.73
2024-02-17T20:46:19.571Z,100647.95
2024-02-17T20:48:47.200Z,100645.13
2024-02-17T20:51:17.868Z,100646.71
2024-02-17T20:53:47.009Z,100645.86
2024-02-17T20:56:15.212Z,100650.44
2024-02-17T20:58:42.846Z,100646.20
2024-02-17T21:01:10.542Z,100643.37
2024-02-17T21:03:38.911Z,100629.05
2024-02-17T21:06:07.241Z,100633.10
2024-02-17T21:15:11.384Z,100629.93
2024-02-17T21:17:39.699Z,100629.56
2024-02-17T21:20:08.820Z,100629.21
2024-02-17T21:22:36.279Z,100623.20
2024-02-17T21:25:04.146Z,100624.98
2024-02-17T21:27:32.054Z,100627.98
2024-02-17T21:30:00.055Z,100632.23
2024-02-17T21:32:27.634Z,100632.22
2024-02-17T21:34:55.374Z,100633.28
2024-02-17T21:37:22.902Z,100628.87
2024-02-17T21:39:51.931Z,100628.33
2024-02-17T21:42:19.749Z,100626.02
2024-02-17T21:44:47.239Z,100626.74
2024-02-17T21:47:16.311Z,100618.80
2024-02-17T21:49:43.888Z,100620.77
2024-02-17T21:52:11.564Z,100618.66
2024-02-17T22:02:18.909Z,100613.67
2024-02-17T22:04:46.650Z,100612.27
2024-02-17T22:07:14.348Z,100608.54
2024-02-17T22:09:41.919Z,100608.73
2024-02-17T22:12:09.459Z,100609.10
2024-02-17T22:14:36.882Z,100610.52
2024-02-17T22:17:05.024Z,100609.10
2024-02-17T22:26:37.786Z,100601.62
2024-02-17T22:29:05.770Z,100599.16
2024-02-17T22:31:34.865Z,100594.05
2024-02-17T22:34:02.646Z,100595.64
2024-02-17T22:36:30.310Z,100589.10
2024-02-17T22:38:57.011Z,100589.11
2024-02-17T22:41:23.877Z,100593.89
2024-02-17T22:43:50.724Z,100596.89
2024-02-17T22:46:17.564Z,100594.23
2024-02-17T22:48:44.501Z,100589.45
2024-02-17T22:51:11.361Z,100584.67
2024-02-17T22:53:37.919Z,100585.91
2024-02-17T22:56:06.364Z,100592.30
2024-02-17T22:58:33.817Z,100590.36
2024-02-17T23:01:00.564Z,100585.24
2024-02-17T23:03:27.561Z,100584.70
2024-02-17T23:05:54.578Z,100588.60
2024-02-17T23:08:21.267Z,100590.71
2024-02-17T23:10:49.286Z,100583.44
2024-02-17T23:13:16.240Z,100586.09
2024-02-17T23:15:43.925Z,100583.81
2024-02-17T23:18:10.623Z,100585.77
2024-02-17T23:20:37.463Z,100588.79
2024-02-17T23:23:11.983Z,100582.60
2024-02-17T23:25:42.156Z,100580.14
2024-02-17T23:28:09.157Z,100576.95
2024-02-17T23:30:35.872Z,100579.77
2024-02-17T23:33:02.948Z,100578.70
2024-02-17T23:35:29.868Z,100573.05
2024-02-17T23:37:56.494Z,100566.31
2024-02-17T23:40:24.943Z,100568.97
2024-02-17T23:42:51.653Z,100561.35
2024-02-17T23:45:18.590Z,100562.77
2024-02-17T23:47:45.653Z,100564.55
2024-02-17T23:50:12.441Z,100561.71
2024-02-17T23:52:39.276Z,100560.30
2024-02-17T23:55:07.384Z,100566.14
2024-02-17T23:57:34.844Z,100565.60
